createdAt,value
2023-12-08T00:02:15.145Z,3.35
2023-12-08T00:04:43.527Z,3.30
2023-12-08T00:07:11.932Z,3.42
2023-12-08T00:09:40.268Z,3.28
2023-12-08T00:12:09.347Z,3.24
2023-12-08T00:14:37.806Z,3.18
2023-12-08T00:17:07.972Z,3.19
2023-12-08T00:19:36.581Z,3.11
2023-12-08T00:22:05.632Z,3.14
2023-12-08T00:24:34.653Z,3.12
2023-12-08T00:27:03.145Z,3.07
2023-12-08T00:29:31.667Z,3.10
2023-12-08T00:32:00.115Z,3.08
2023-12-08T00:34:30.018Z,3.04
2023-12-08T00:36:58.821Z,3.18
2023-12-08T00:39:27.195Z,3.06
2023-12-08T00:41:55.693Z,3.07
2023-12-08T00:44:24.910Z,3.08
2023-12-08T00:46:54.094Z,3.05
2023-12-08T00:49:22.598Z,3.12
2023-12-08T00:51:52.373Z,3.15
2023-12-08T00:54:20.820Z,3.04
2023-12-08T00:56:49.506Z,3.15
2023-12-08T00:59:18.356Z,3.14
2023-12-08T01:01:46.812Z,3.31
2023-12-08T01:04:15.383Z,3.24
2023-12-08T01:06:43.860Z,3.12
2023-12-08T01:09:14.003Z,3.19
2023-12-08T01:11:42.772Z,3.22
2023-12-08T01:14:11.142Z,3.30
2023-12-08T01:16:42.430Z,3.23
2023-12-08T01:19:12.824Z,3.25
2023-12-08T01:21:41.846Z,3.13
2023-12-08T01:24:10.373Z,3.08
2023-12-08T01:26:45.118Z,3.16
2023-12-08T01:29:13.528Z,3.30
2023-12-08T01:31:42.048Z,3.22
2023-12-08T01:34:10.515Z,3.28
2023-12-08T01:36:43.120Z,3.12
2023-12-08T01:39:13.905Z,3.04
2023-12-08T01:41:44.277Z,3.02
2023-12-08T01:44:12.691Z,2.71
2023-12-08T01:46:41.094Z,2.91
2023-12-08T01:49:09.574Z,2.80
2023-12-08T01:51:38.089Z,2.97
2023-12-08T01:54:07.583Z,3.02
2023-12-08T01:56:37.083Z,3.02
2023-12-08T01:59:07.420Z,2.94
2023-12-08T02:01:35.899Z,2.96
2023-12-08T02:04:06.421Z,2.91
2023-12-08T02:06:35.630Z,2.78
2023-12-08T02:09:04.366Z,2.77
2023-12-08T02:11:32.897Z,2.85
2023-12-08T02:14:01.299Z,2.90
2023-12-08T02:16:41.435Z,2.82
2023-12-08T02:19:10.630Z,2.78
2023-12-08T02:21:39.327Z,2.89
2023-12-08T02:24:09.475Z,3.15
2023-12-08T02:26:38.109Z,3.30
2023-12-08T02:29:09.893Z,3.41
2023-12-08T02:31:42.692Z,3.46
2023-12-08T02:34:12.473Z,3.55
2023-12-08T02:36:41.405Z,3.50
2023-12-08T02:39:13.241Z,3.67
2023-12-08T02:41:43.712Z,3.55
2023-12-08T02:44:11.949Z,3.66
2023-12-08T02:46:41.781Z,3.49
2023-12-08T02:49:10.233Z,3.63
2023-12-08T02:51:38.644Z,2.93
2023-12-08T02:54:07.119Z,3.65
2023-12-08T02:56:36.822Z,3.77
2023-12-08T02:59:05.198Z,3.70
2023-12-08T03:01:33.728Z,3.49
2023-12-08T03:04:02.769Z,3.63
2023-12-08T03:06:31.382Z,3.66
2023-12-08T03:08:59.743Z,3.50
2023-12-08T03:11:28.147Z,3.44
2023-12-08T03:13:57.857Z,3.32
2023-12-08T03:16:26.262Z,3.28
2023-12-08T03:18:54.676Z,3.32
2023-12-08T03:21:24.014Z,3.38
2023-12-08T03:23:53.016Z,3.40
2023-12-08T03:26:21.821Z,3.29
2023-12-08T03:28:50.163Z,3.48
2023-12-08T03:31:28.573Z,3.54
2023-12-08T03:33:57.185Z,3.61
2023-12-08T03:36:25.891Z,3.66
2023-12-08T03:38:54.288Z,3.78
2023-12-08T03:41:23.310Z,3.73
2023-12-08T03:43:51.668Z,3.82
2023-12-08T03:46:20.005Z,3.81
2023-12-08T03:48:51.867Z,3.90
2023-12-08T03:51:21.879Z,3.85
2023-12-08T03:53:50.234Z,3.80
2023-12-08T03:56:18.588Z,3.78
2023-12-08T03:58:46.938Z,3.90
2023-12-08T04:01:18.886Z,3.98
2023-12-08T04:03:47.392Z,4.03
2023-12-08T04:06:17.355Z,3.86
2023-12-08T04:08:45.785Z,3.98
2023-12-08T04:11:14.165Z,3.95
2023-12-08T04:13:42.455Z,4.01
2023-12-08T04:16:11.593Z,3.88
2023-12-08T04:18:40.098Z,3.88
2023-12-08T04:21:08.835Z,3.90
2023-12-08T04:23:39.116Z,3.88
2023-12-08T04:26:09.313Z,3.85
2023-12-08T04:28:37.966Z,4.00
2023-12-08T04:31:06.824Z,3.98
2023-12-08T04:33:35.555Z,4.01
2023-12-08T04:36:04.381Z,4.03
2023-12-08T04:38:32.859Z,3.81
2023-12-08T04:41:02.570Z,3.88
2023-12-08T04:43:30.901Z,3.92
2023-12-08T04:45:59.371Z,3.97
2023-12-08T04:48:28.108Z,3.92
2023-12-08T04:50:57.095Z,4.09
2023-12-08T04:53:25.463Z,4.08
2023-12-08T04:55:53.896Z,4.16
2023-12-08T04:58:24.351Z,4.07
2023-12-08T05:00:52.991Z,4.33
2023-12-08T05:03:21.471Z,4.51
2023-12-08T05:05:50.071Z,4.45
2023-12-08T05:08:18.517Z,4.44
2023-12-08T05:10:46.885Z,4.47
2023-12-08T05:13:15.282Z,4.48
2023-12-08T05:15:45.025Z,4.45
2023-12-08T05:18:13.544Z,4.38
2023-12-08T05:20:42.042Z,4.32
2023-12-08T05:23:10.360Z,4.36
2023-12-08T05:25:38.656Z,4.27
2023-12-08T05:28:07.365Z,4.26
2023-12-08T05:30:35.629Z,4.33
2023-12-08T05:33:05.768Z,4.41
2023-12-08T05:35:34.329Z,4.35
2023-12-08T05:38:02.835Z,4.27
2023-12-08T05:40:31.444Z,4.12
2023-12-08T05:43:00.249Z,4.33
2023-12-08T05:45:28.595Z,4.30
2023-12-08T05:47:57.186Z,4.34
2023-12-08T05:50:26.990Z,4.33
2023-12-08T05:52:55.334Z,4.50
2023-12-08T05:55:23.662Z,4.49
2023-12-08T05:57:52.145Z,4.56
2023-12-08T06:00:21.690Z,4.50
2023-12-08T06:02:50.254Z,4.49
2023-12-08T06:05:19.673Z,4.53
2023-12-08T06:07:49.617Z,4.61
2023-12-08T06:10:18.444Z,4.66
2023-12-08T06:12:46.751Z,4.65
2023-12-08T06:15:15.113Z,4.66
2023-12-08T06:17:44.033Z,4.62
2023-12-08T06:20:13.898Z,4.62
2023-12-08T06:22:43.711Z,4.53
2023-12-08T06:25:13.481Z,4.56
2023-12-08T06:27:41.858Z,4.55
2023-12-08T06:30:12.311Z,4.55
2023-12-08T06:32:40.780Z,4.71
2023-12-08T06:35:09.745Z,4.77
2023-12-08T06:37:38.094Z,4.77
2023-12-08T06:40:08.879Z,4.86
2023-12-08T06:42:38.611Z,4.85
2023-12-08T06:45:09.900Z,4.84
2023-12-08T06:47:38.673Z,4.86
2023-12-08T06:50:08.580Z,4.91
2023-12-08T06:52:36.933Z,4.92
2023-12-08T06:55:06.100Z,4.94
2023-12-08T06:57:34.731Z,5.07
2023-12-08T07:00:11.402Z,4.99
2023-12-08T07:02:40.171Z,4.90
2023-12-08T07:05:09.808Z,5.07
2023-12-08T07:07:39.259Z,5.13
2023-12-08T07:10:09.312Z,5.31
2023-12-08T07:12:38.031Z,5.39
2023-12-08T07:15:09.638Z,5.50
2023-12-08T07:17:38.803Z,5.41
2023-12-08T07:20:10.376Z,5.48
2023-12-08T07:22:39.160Z,5.55
2023-12-08T07:25:11.071Z,5.62
2023-12-08T07:27:39.438Z,5.48
2023-12-08T07:30:11.337Z,5.68
2023-12-08T07:32:39.791Z,5.75
2023-12-08T07:35:10.103Z,5.77
2023-12-08T07:37:42.171Z,5.84
2023-12-08T07:40:12.546Z,5.83
2023-12-08T07:42:40.974Z,5.70
2023-12-08T07:45:12.103Z,5.10
2023-12-08T07:47:40.690Z,5.96
2023-12-08T07:50:10.280Z,5.91
2023-12-08T07:52:39.627Z,6.06
2023-12-08T07:55:09.272Z,6.01
2023-12-08T07:57:37.663Z,6.02
2023-12-08T08:00:09.603Z,6.04
2023-12-08T08:02:39.519Z,6.02
2023-12-08T08:05:08.314Z,6.07
2023-12-08T08:07:36.652Z,6.22
2023-12-08T08:10:05.696Z,6.36
2023-12-08T08:12:34.780Z,6.41
2023-12-08T08:15:03.719Z,6.46
2023-12-08T08:17:32.580Z,6.61
2023-12-08T08:20:02.459Z,6.74
2023-12-08T08:22:32.950Z,6.75
2023-12-08T08:25:02.700Z,6.74
2023-12-08T08:27:33.155Z,6.84
2023-12-08T08:30:01.792Z,6.92
2023-12-08T08:32:30.382Z,7.01
2023-12-08T08:34:59.836Z,7.01
2023-12-08T08:37:30.504Z,7.14
2023-12-08T08:39:59.285Z,7.21
2023-12-08T08:42:28.211Z,7.12
2023-12-08T08:44:56.747Z,7.21
2023-12-08T08:47:25.606Z,7.30
2023-12-08T08:49:54.352Z,7.28
2023-12-08T08:52:22.764Z,7.39
2023-12-08T08:54:52.478Z,7.44
2023-12-08T08:57:20.889Z,7.44
2023-12-08T08:59:49.248Z,7.59
2023-12-08T09:02:17.597Z,7.55
2023-12-08T09:04:46.093Z,7.64
2023-12-08T09:07:14.616Z,7.76
2023-12-08T09:09:44.818Z,7.82
2023-12-08T09:12:14.852Z,7.92
2023-12-08T09:14:43.252Z,7.92
2023-12-08T09:17:11.663Z,7.84
2023-12-08T09:19:40.244Z,7.95
2023-12-08T09:22:08.694Z,8.01
2023-12-08T09:24:37.011Z,8.10
2023-12-08T09:27:06.081Z,8.15
2023-12-08T09:29:36.795Z,8.08
2023-12-08T09:32:06.032Z,8.25
2023-12-08T09:34:34.805Z,8.31
2023-12-08T09:37:26.148Z,8.35
2023-12-08T09:39:52.078Z,8.41
2023-12-08T09:42:33.743Z,8.37
2023-12-08T09:45:05.719Z,8.52
2023-12-08T09:47:36.902Z,8.58
2023-12-08T09:50:08.394Z,8.70
2023-12-08T09:52:37.584Z,8.67
2023-12-08T09:55:07.668Z,8.81
2023-12-08T09:57:36.929Z,8.84
2023-12-08T10:00:12.803Z,8.91
2023-12-08T10:02:42.478Z,8.87
2023-12-08T10:05:12.931Z,8.84
2023-12-08T10:07:43.474Z,8.86
2023-12-08T10:10:12.284Z,8.93
2023-12-08T10:12:42.309Z,8.35
2023-12-08T10:15:14.026Z,9.02
2023-12-08T10:17:51.151Z,9.03
2023-12-08T10:20:21.891Z,8.97
2023-12-08T10:22:52.837Z,9.07
2023-12-08T10:25:22.920Z,9.03
2023-12-08T10:27:52.915Z,9.16
2023-12-08T10:30:25.058Z,9.20
2023-12-08T10:32:54.783Z,9.29
2023-12-08T10:35:24.603Z,9.35
2023-12-08T10:37:53.032Z,9.17
2023-12-08T10:40:21.401Z,9.32
2023-12-08T10:42:50.322Z,9.37
2023-12-08T10:45:19.900Z,9.41
2023-12-08T10:47:51.874Z,9.48
2023-12-08T10:50:22.907Z,9.46
2023-12-08T10:52:54.349Z,9.47
2023-12-08T10:55:22.695Z,9.45
2023-12-08T10:57:55.672Z,9.48
2023-12-08T11:00:27.528Z,9.41
2023-12-08T11:02:58.653Z,9.36
2023-12-08T11:05:32.871Z,9.36
2023-12-08T11:08:05.114Z,9.35
2023-12-08T11:10:38.918Z,9.29
2023-12-08T11:13:11.355Z,9.14
2023-12-08T11:15:43.605Z,9.31
2023-12-08T11:18:26.021Z,9.42
2023-12-08T11:20:55.094Z,9.43
2023-12-08T11:23:24.141Z,9.45
2023-12-08T11:26:14.260Z,9.51
2023-12-08T11:28:59.074Z,9.45
2023-12-08T11:31:37.619Z,9.52
2023-12-08T11:34:19.262Z,9.46
2023-12-08T11:36:48.108Z,9.59
2023-12-08T11:39:44.751Z,9.66
2023-12-08T11:42:15.047Z,9.66
2023-12-08T11:44:45.651Z,9.65
2023-12-08T11:47:16.068Z,9.64
2023-12-08T11:49:48.352Z,9.64
2023-12-08T11:52:19.689Z,9.70
2023-12-08T11:55:13.628Z,9.76
2023-12-08T11:58:07.059Z,9.75
2023-12-08T12:00:37.677Z,9.79
2023-12-08T12:03:07.352Z,9.68
2023-12-08T12:05:39.679Z,9.87
2023-12-08T12:08:09.602Z,9.87
2023-12-08T12:10:40.511Z,9.92
2023-12-08T12:13:13.930Z,9.95
2023-12-08T12:15:44.051Z,10.01
2023-12-08T12:18:14.739Z,9.97
2023-12-08T12:20:46.458Z,9.97
2023-12-08T12:23:17.405Z,10.02
2023-12-08T12:25:49.449Z,10.08
2023-12-08T12:28:19.362Z,10.13
2023-12-08T12:30:51.144Z,9.94
2023-12-08T12:33:19.835Z,10.14
2023-12-08T12:35:54.355Z,10.18
2023-12-08T12:38:27.119Z,10.17
2023-12-08T12:40:56.719Z,10.23
2023-12-08T12:43:25.506Z,10.22
2023-12-08T12:45:53.971Z,10.23
2023-12-08T12:48:26.922Z,10.09
2023-12-08T12:50:56.922Z,9.66
2023-12-08T12:53:26.180Z,10.38
2023-12-08T12:56:07.088Z,10.37
2023-12-08T12:58:35.387Z,10.25
2023-12-08T13:01:12.857Z,10.36
2023-12-08T13:03:47.600Z,10.40
2023-12-08T13:06:29.036Z,10.31
2023-12-08T13:08:57.765Z,10.34
2023-12-08T13:11:27.766Z,9.56
2023-12-08T13:13:57.603Z,10.26
2023-12-08T13:16:26.370Z,10.31
2023-12-08T13:18:56.110Z,10.34
2023-12-08T13:21:26.421Z,10.35
2023-12-08T13:23:54.911Z,10.26
2023-12-08T13:26:23.294Z,10.30
2023-12-08T13:28:52.190Z,10.43
2023-12-08T13:31:20.586Z,10.48
2023-12-08T13:33:49.023Z,10.46
2023-12-08T13:36:17.654Z,10.45
2023-12-08T13:38:47.898Z,10.34
2023-12-08T13:41:16.308Z,10.49
2023-12-08T13:43:44.761Z,10.46
2023-12-08T13:46:13.072Z,10.35
2023-12-08T13:48:41.642Z,10.57
2023-12-08T13:51:28.440Z,10.65
2023-12-08T13:54:00.193Z,10.73
2023-12-08T13:56:28.623Z,10.79
2023-12-08T13:58:56.901Z,10.76
2023-12-08T14:01:25.307Z,10.83
2023-12-08T14:03:53.880Z,10.78
2023-12-08T14:06:22.408Z,10.75
2023-12-08T14:08:53.195Z,10.86
2023-12-08T14:11:22.998Z,10.91
2023-12-08T14:13:51.417Z,10.97
2023-12-08T14:16:19.958Z,11.09
2023-12-08T14:18:48.492Z,11.09
2023-12-08T14:21:17.008Z,11.04
2023-12-08T14:23:45.505Z,11.08
2023-12-08T14:26:14.142Z,11.14
2023-12-08T14:28:44.044Z,11.13
2023-12-08T14:31:12.427Z,11.18
2023-12-08T14:33:41.441Z,11.18
2023-12-08T14:36:10.700Z,11.08
2023-12-08T14:38:39.975Z,11.18
2023-12-08T14:41:09.708Z,11.05
2023-12-08T14:43:38.156Z,11.14
2023-12-08T14:46:08.022Z,11.17
2023-12-08T14:48:36.628Z,11.16
2023-12-08T14:51:07.245Z,11.21
2023-12-08T14:53:35.805Z,11.22
2023-12-08T14:56:04.365Z,11.22
2023-12-08T14:58:32.737Z,11.26
2023-12-08T15:01:01.033Z,11.26
2023-12-08T15:03:30.865Z,11.16
2023-12-08T15:06:00.670Z,11.34
2023-12-08T15:08:29.191Z,11.34
2023-12-08T15:10:57.533Z,11.27
2023-12-08T15:13:26.100Z,11.30
2023-12-08T15:15:54.560Z,11.29
2023-12-08T15:18:23.129Z,11.28
2023-12-08T15:20:55.725Z,11.28
2023-12-08T15:23:25.128Z,11.25
2023-12-08T15:25:55.059Z,11.27
2023-12-08T15:28:23.511Z,11.28
2023-12-08T15:30:52.263Z,11.22
2023-12-08T15:33:20.915Z,11.20
2023-12-08T15:35:49.803Z,11.21
2023-12-08T15:38:19.980Z,11.18
2023-12-08T15:40:48.391Z,11.14
2023-12-08T15:43:16.946Z,11.15
2023-12-08T15:45:45.531Z,11.15
2023-12-08T15:48:14.141Z,11.16
2023-12-08T15:50:42.665Z,11.19
2023-12-08T15:53:11.160Z,11.19
2023-12-08T15:55:41.132Z,11.24
2023-12-08T15:58:09.513Z,11.27
2023-12-08T16:00:38.633Z,11.29
2023-12-08T16:03:07.919Z,11.16
2023-12-08T16:05:36.369Z,11.25
2023-12-08T16:08:04.865Z,11.26
2023-12-08T16:10:33.210Z,11.26
2023-12-08T16:13:02.895Z,11.20
2023-12-08T16:15:31.364Z,11.18
2023-12-08T16:17:59.975Z,11.18
2023-12-08T16:20:28.431Z,10.97
2023-12-08T16:22:56.736Z,11.00
2023-12-08T16:25:25.399Z,11.05
2023-12-08T16:27:53.782Z,11.09
2023-12-08T16:30:23.554Z,11.03
2023-12-08T16:32:51.975Z,10.89
2023-12-08T16:35:20.305Z,10.88
2023-12-08T16:37:48.606Z,10.85
2023-12-08T16:40:16.945Z,10.86
2023-12-08T16:42:45.315Z,10.85
2023-12-08T16:45:13.809Z,10.81
2023-12-08T16:47:44.421Z,10.81
2023-12-08T16:50:14.267Z,10.81
2023-12-08T16:52:42.711Z,10.82
2023-12-08T16:55:11.316Z,10.78
2023-12-08T16:57:40.555Z,10.79
2023-12-08T17:00:10.479Z,10.79
2023-12-08T17:02:38.999Z,10.72
2023-12-08T17:05:10.276Z,10.74
2023-12-08T17:07:38.644Z,10.79
2023-12-08T17:10:08.866Z,10.84
2023-12-08T17:12:37.280Z,10.81
2023-12-08T17:15:06.784Z,10.86
2023-12-08T17:17:35.188Z,10.76
2023-12-08T17:20:03.826Z,10.73
2023-12-08T17:22:33.974Z,10.79
2023-12-08T17:25:03.788Z,10.75
2023-12-08T17:27:32.524Z,10.70
2023-12-08T17:30:01.091Z,10.70
2023-12-08T17:32:29.646Z,10.66
2023-12-08T17:34:58.492Z,10.69
2023-12-08T17:37:28.135Z,10.63
2023-12-08T17:39:58.082Z,10.61
2023-12-08T17:42:26.780Z,10.64
2023-12-08T17:44:55.333Z,10.63
2023-12-08T17:47:23.734Z,10.51
2023-12-08T17:49:52.277Z,10.56
2023-12-08T17:52:22.929Z,10.32
2023-12-08T17:54:53.046Z,10.52
2023-12-08T17:57:22.836Z,10.54
2023-12-08T17:59:51.214Z,10.50
2023-12-08T18:02:19.564Z,10.54
2023-12-08T18:04:47.925Z,10.59
2023-12-08T18:07:16.328Z,10.58
2023-12-08T18:09:44.717Z,10.59
2023-12-08T18:12:13.133Z,10.57
2023-12-08T18:14:42.860Z,10.54
2023-12-08T18:17:11.351Z,10.53
2023-12-08T18:19:41.296Z,10.50
2023-12-08T18:22:09.768Z,10.51
2023-12-08T18:24:38.270Z,10.54
2023-12-08T18:27:06.972Z,10.47
2023-12-08T18:29:35.452Z,10.50
2023-12-08T18:32:05.712Z,10.48
2023-12-08T18:34:37.649Z,10.46
2023-12-08T18:37:06.502Z,10.50
2023-12-08T18:39:34.821Z,10.52
2023-12-08T18:42:03.329Z,10.51
2023-12-08T18:44:31.722Z,10.50
2023-12-08T18:47:00.121Z,10.47
2023-12-08T18:49:29.871Z,10.53
2023-12-08T18:51:58.315Z,10.43
2023-12-08T18:54:27.583Z,10.42
2023-12-08T18:56:56.047Z,10.46
2023-12-08T18:59:24.402Z,10.48
2023-12-08T19:01:52.973Z,10.37
2023-12-08T19:04:21.373Z,10.31
2023-12-08T19:06:51.113Z,10.51
2023-12-08T19:09:19.591Z,10.43
2023-12-08T19:11:48.114Z,10.49
2023-12-08T19:14:16.539Z,10.39
2023-12-08T19:16:44.892Z,10.43
2023-12-08T19:19:14.175Z,10.48
2023-12-08T19:21:42.902Z,10.53
2023-12-08T19:24:12.653Z,10.47
2023-12-08T19:26:40.997Z,10.52
2023-12-08T19:29:09.388Z,10.57
2023-12-08T19:31:37.856Z,10.61
2023-12-08T19:34:06.767Z,10.64
2023-12-08T19:36:35.515Z,10.69
2023-12-08T19:39:08.135Z,10.73
2023-12-08T19:41:38.055Z,10.77
2023-12-08T19:44:08.102Z,10.77
2023-12-08T19:46:39.373Z,10.81
2023-12-08T19:49:07.947Z,10.74
2023-12-08T19:51:36.345Z,10.76
2023-12-08T19:54:06.361Z,10.65
2023-12-08T19:56:34.719Z,10.57
2023-12-08T19:59:05.242Z,10.59
2023-12-08T20:01:33.595Z,10.60
2023-12-08T20:04:01.984Z,10.58
2023-12-08T20:06:32.228Z,10.43
2023-12-08T20:09:00.791Z,10.52
2023-12-08T20:11:29.187Z,10.52
2023-12-08T20:13:57.802Z,10.55
2023-12-08T20:16:27.623Z,10.56
2023-12-08T20:18:56.528Z,10.54
2023-12-08T20:21:24.970Z,10.55
2023-12-08T20:23:53.660Z,10.57
2023-12-08T20:26:22.024Z,10.49
2023-12-08T20:28:51.707Z,10.50
2023-12-08T20:31:21.758Z,10.55
2023-12-08T20:33:53.059Z,10.60
2023-12-08T20:36:23.947Z,10.50
2023-12-08T20:38:54.427Z,10.54
2023-12-08T20:41:23.197Z,10.58
2023-12-08T20:43:51.678Z,10.57
2023-12-08T20:46:20.132Z,10.55
2023-12-08T20:48:50.057Z,10.53
2023-12-08T20:51:18.593Z,10.51
2023-12-08T20:53:47.556Z,10.49
2023-12-08T20:56:17.869Z,10.38
2023-12-08T20:58:46.387Z,10.37
2023-12-08T21:01:15.166Z,10.34
2023-12-08T21:03:43.614Z,10.36
2023-12-08T21:06:13.512Z,10.32
2023-12-08T21:08:41.964Z,10.33
2023-12-08T21:11:10.341Z,10.38
2023-12-08T21:13:39.130Z,10.36
2023-12-08T21:16:08.481Z,10.32
2023-12-08T21:18:37.023Z,10.39
2023-12-08T21:21:06.095Z,10.31
2023-12-08T21:23:35.889Z,10.38
2023-12-08T21:26:05.005Z,10.36
2023-12-08T21:28:33.795Z,10.36
2023-12-08T21:31:02.192Z,10.36
2023-12-08T21:33:30.736Z,10.34
2023-12-08T21:35:59.233Z,9.77
2023-12-08T21:38:27.883Z,10.43
2023-12-08T21:40:57.938Z,10.40
2023-12-08T21:43:26.289Z,10.45
2023-12-08T21:45:54.714Z,10.32
2023-12-08T21:48:23.180Z,10.40
2023-12-08T21:50:51.653Z,10.44
2023-12-08T21:53:20.003Z,10.32
2023-12-08T21:55:48.433Z,10.39
2023-12-08T21:58:18.515Z,10.41
2023-12-08T22:00:47.440Z,10.43
2023-12-08T22:03:16.059Z,10.39
2023-12-08T22:05:44.443Z,10.45
2023-12-08T22:08:13.402Z,10.44
2023-12-08T22:10:43.025Z,10.46
2023-12-08T22:13:12.520Z,10.51
2023-12-08T22:15:42.382Z,10.43
2023-12-08T22:18:10.921Z,10.47
2023-12-08T22:20:39.333Z,10.51
2023-12-08T22:23:07.801Z,10.41
2023-12-08T22:25:38.062Z,10.46
2023-12-08T22:28:06.782Z,10.44
2023-12-08T22:30:35.207Z,10.41
2023-12-08T22:33:05.119Z,10.35
2023-12-08T22:35:33.558Z,10.39
2023-12-08T22:38:01.994Z,10.45
2023-12-08T22:40:30.316Z,10.34
2023-12-08T22:42:58.833Z,10.31
2023-12-08T22:45:27.160Z,10.30
2023-12-08T22:47:55.562Z,10.28
2023-12-08T22:50:32.143Z,10.30
2023-12-08T22:53:04.473Z,10.34
2023-12-08T22:55:33.133Z,10.32
2023-12-08T22:58:01.731Z,10.47
2023-12-08T23:00:30.191Z,10.42
2023-12-08T23:02:58.931Z,10.43
2023-12-08T23:05:28.758Z,10.53
2023-12-08T23:07:57.118Z,10.49
2023-12-08T23:10:25.872Z,10.43
2023-12-08T23:12:54.322Z,10.41
2023-12-08T23:15:23.361Z,10.44
2023-12-08T23:17:54.117Z,10.35
2023-12-08T23:20:22.628Z,10.16
2023-12-08T23:22:52.374Z,10.35
2023-12-08T23:25:20.819Z,10.34
2023-12-08T23:27:49.156Z,10.28
2023-12-08T23:30:17.679Z,10.30
2023-12-08T23:32:46.079Z,10.30
2023-12-08T23:35:14.547Z,10.30
2023-12-08T23:37:43.128Z,10.24
2023-12-08T23:40:13.824Z,10.29
2023-12-08T23:42:42.454Z,10.30
2023-12-08T23:45:13.707Z,10.28
2023-12-08T23:47:42.768Z,10.21
2023-12-08T23:50:11.688Z,10.25
2023-12-08T23:52:40.032Z,10.11
2023-12-08T23:55:09.014Z,10.14
2023-12-08T23:57:38.713Z,10.17
